Time;durP1;ratioP1;P1;durP2;ratioP2;P2;SDS_P1;SDS_P2;PMS_P1;PMS_P2;Temp;Humidity;BMP_temperature;BMP_pressure;BME280_temperature;BME280_humidity;BME280_pressure;Samples;Min_cycle;Max_cycle;Signal;HPM_P1;HPM_P2
2022/11/21 00:04:38;;;;;;;18.35;7.93;;;6.50;95.70;;;;;;10431293;28;20561;-64
2022/11/21 00:09:39;;;;;;;20.65;8.57;;;6.30;95.60;;;;;;10443124;28;20121;-62
2022/11/21 00:14:39;;;;;;;18.30;8.57;;;6.30;95.60;;;;;;10445719;28;20036;-63
2022/11/21 00:19:40;;;;;;;18.85;9.00;;;6.30;95.60;;;;;;10442038;28;20029;-63
2022/11/21 00:24:41;;;;;;;17.55;8.10;;;6.30;95.60;;;;;;10443652;28;20053;-63
2022/11/21 00:29:41;;;;;;;17.15;8.73;;;6.40;95.60;;;;;;10425087;28;20116;-63
2022/11/21 00:34:42;;;;;;;20.02;8.73;;;6.80;95.70;;;;;;10449729;28;20029;-62
2022/11/21 00:39:43;;;;;;;19.25;8.93;;;6.40;95.60;;;;;;10447967;28;20032;-63
2022/11/21 00:44:43;;;;;;;20.45;9.50;;;6.30;95.60;;;;;;10419402;28;20048;-62
2022/11/21 00:49:44;;;;;;;18.10;8.77;;;6.60;95.70;;;;;;10437862;28;20025;-63
2022/11/21 00:54:45;;;;;;;15.85;7.60;;;6.80;95.70;;;;;;10426348;28;20041;-63
2022/11/21 00:59:45;;;;;;;15.00;8.30;;;6.40;95.60;;;;;;10429883;28;20025;-63
2022/11/21 01:04:46;;;;;;;16.77;8.40;;;6.30;95.60;;;;;;10429959;28;20260;-63
2022/11/21 01:09:47;;;;;;;15.75;7.72;;;6.30;95.60;;;;;;10416355;28;20478;-63
2022/11/21 01:14:47;;;;;;;18.00;8.20;;;6.30;95.60;;;;;;10429654;28;20401;-63
2022/11/21 01:19:49;;;;;;;19.67;8.63;;;6.30;95.60;;;;;;10429270;28;20028;-63
2022/11/21 01:24:49;;;;;;;18.65;8.88;;;6.50;95.60;;;;;;10444839;28;20118;-63
2022/11/21 01:29:51;;;;;;;19.58;8.75;;;6.30;95.60;;;;;;10431667;28;20095;-63
2022/11/21 01:34:52;;;;;;;16.38;8.15;;;6.40;95.60;;;;;;10431562;28;20377;-63
2022/11/21 01:39:54;;;;;;;17.90;8.60;;;6.30;95.60;;;;;;10454468;28;20031;-63
2022/11/21 01:44:54;;;;;;;16.45;8.00;;;6.30;95.60;;;;;;10441612;28;20037;-63
2022/11/21 01:49:55;;;;;;;17.30;8.32;;;6.60;95.60;;;;;;10442393;28;20025;-63
2022/11/21 01:54:59;;;;;;;18.13;8.35;;;6.70;95.70;;;;;;10441733;28;20116;-63
2022/11/21 02:00:20;;;;;;;17.27;8.65;;;6.60;95.70;;;;;;10449552;28;20059;-63
2022/11/21 02:05:24;;;;;;;17.33;8.25;;;6.40;95.60;;;;;;10450073;28;20029;-63
2022/11/21 02:10:26;;;;;;;21.15;8.30;;;6.30;95.60;;;;;;10454472;28;20108;-63
2022/11/21 02:15:28;;;;;;;18.85;8.75;;;6.30;95.60;;;;;;10457683;28;20076;-63
2022/11/21 02:20:29;;;;;;;16.90;9.00;;;6.30;95.60;;;;;;10453158;28;20040;-63
2022/11/21 02:25:33;;;;;;;18.55;8.30;;;6.30;95.60;;;;;;10470549;28;20502;-63
2022/11/21 02:30:37;;;;;;;16.63;7.85;;;6.30;95.90;;;;;;10458102;28;20472;-63
2022/11/21 02:35:39;;;;;;;15.55;8.30;;;6.40;95.60;;;;;;10437065;28;20262;-63
2022/11/21 02:41:08;;;;;;;14.98;8.20;;;6.70;95.70;;;;;;10449446;28;20032;-63
2022/11/21 02:46:09;;;;;;;17.25;8.30;;;6.40;95.90;;;;;;10433267;28;20044;-63
2022/11/21 02:51:10;;;;;;;18.30;8.68;;;6.40;95.60;;;;;;10447286;28;20417;-63
2022/11/21 02:56:11;;;;;;;18.35;8.35;;;6.40;95.60;;;;;;10447922;28;20029;-63
2022/11/21 03:01:11;;;;;;;16.85;8.38;;;6.40;95.60;;;;;;10433630;28;20119;-63
2022/11/21 03:06:12;;;;;;;17.65;8.18;;;6.30;95.60;;;;;;10437751;28;20033;-63
2022/11/21 03:11:12;;;;;;;17.55;8.73;;;6.30;95.60;;;;;;10445370;28;20478;-63
2022/11/21 03:16:13;;;;;;;17.73;8.77;;;6.30;95.60;;;;;;10447890;28;20033;-63
2022/11/21 03:21:14;;;;;;;19.55;9.65;;;6.30;95.60;;;;;;10446538;28;20029;-62
2022/11/21 03:26:15;;;;;;;18.50;8.70;;;6.30;95.60;;;;;;10460289;28;20130;-62
2022/11/21 03:31:15;;;;;;;19.48;9.55;;;6.30;95.60;;;;;;10456530;28;20465;-62
2022/11/21 03:36:16;;;;;;;17.48;8.95;;;6.40;95.60;;;;;;10415098;28;20055;-62
2022/11/21 03:41:29;;;;;;;18.73;8.90;;;6.30;95.60;;;;;;10454723;28;20421;-62
2022/11/21 03:46:32;;;;;;;17.17;8.23;;;6.40;95.60;;;;;;10423478;28;20402;-62
2022/11/21 03:51:33;;;;;;;16.10;8.43;;;6.30;95.60;;;;;;10441627;28;20053;-61
2022/11/21 03:56:34;;;;;;;15.80;8.55;;;6.30;95.60;;;;;;10425658;28;20526;-62
2022/11/21 04:01:35;;;;;;;14.95;8.30;;;6.40;95.60;;;;;;10470271;28;20025;-63
2022/11/21 04:06:36;;;;;;;18.17;8.65;;;6.30;95.60;;;;;;10462115;28;20571;-62
2022/11/21 04:11:37;;;;;;;18.27;8.00;;;6.70;95.70;;;;;;10453597;28;20032;-63
2022/11/21 04:16:37;;;;;;;15.88;8.13;;;6.40;95.60;;;;;;10445474;28;20032;-62
2022/11/21 04:21:38;;;;;;;18.35;8.32;;;6.70;95.70;;;;;;10443878;28;20021;-62
2022/11/21 04:26:38;;;;;;;16.38;7.68;;;6.30;95.60;;;;;;10449102;28;20052;-63
2022/11/21 04:31:39;;;;;;;17.58;7.70;;;6.20;95.60;;;;;;10448865;28;20029;-62
2022/11/21 04:36:40;;;;;;;16.98;8.43;;;7.40;95.90;;;;;;10451879;28;20028;-62
2022/11/21 04:41:40;;;;;;;15.95;8.38;;;6.20;95.60;;;;;;10460272;28;20021;-62
2022/11/21 04:46:41;;;;;;;16.42;8.02;;;6.30;95.70;;;;;;10429849;28;20110;-63
2022/11/21 04:51:42;;;;;;;14.35;8.10;;;6.20;95.60;;;;;;10443910;28;20029;-63
2022/11/21 04:56:42;;;;;;;15.70;8.38;;;6.20;95.60;;;;;;10444782;28;20027;-63
2022/11/21 05:01:43;;;;;;;15.00;7.93;;;6.20;95.60;;;;;;10425108;28;20036;-63
2022/11/21 05:06:44;;;;;;;16.48;7.72;;;6.40;95.70;;;;;;10443666;28;20021;-63
2022/11/21 05:17:04;;;;;;;;;;;6.20;95.60;;;;;;10437204;28;20025;-63
2022/11/21 05:22:04;;;;;;;16.33;8.05;;;6.10;95.40;;;;;;10446046;28;19922;-63
2022/11/21 05:27:09;;;;;;;18.85;8.57;;;6.40;95.60;;;;;;10452207;28;20069;-62
2022/11/21 05:32:10;;;;;;;15.10;7.45;;;6.10;95.50;;;;;;10451902;28;20538;-63
2022/11/21 05:37:11;;;;;;;15.05;8.00;;;6.10;95.50;;;;;;10442394;28;20127;-63
2022/11/21 05:42:11;;;;;;;17.25;8.27;;;6.40;95.60;;;;;;10439932;28;20041;-63
2022/11/21 05:47:12;;;;;;;16.83;7.68;;;6.30;95.60;;;;;;10442555;28;20036;-63
2022/11/21 05:52:13;;;;;;;17.58;8.27;;;6.30;95.60;;;;;;10442134;28;20025;-63
2022/11/21 05:57:13;;;;;;;18.30;8.65;;;6.20;95.50;;;;;;10442651;28;20029;-63
2022/11/21 06:07:33;;;;;;;18.00;8.73;;;6.10;95.50;;;;;;10428614;28;20399;-62
2022/11/21 06:12:34;;;;;;;17.20;8.52;;;6.30;95.50;;;;;;10419007;28;20520;-62
2022/11/21 06:17:34;;;;;;;18.90;8.60;;;7.20;95.80;;;;;;10442002;28;20478;-63
2022/11/21 06:22:35;;;;;;;17.85;8.57;;;6.00;95.40;;;;;;10449201;28;20136;-63
2022/11/21 06:27:36;;;;;;;18.77;8.98;;;6.00;95.40;;;;;;10437440;28;20042;-63
2022/11/21 06:32:37;;;;;;;15.10;8.43;;;6.00;95.40;;;;;;10450363;28;20025;-62
2022/11/21 06:37:37;;;;;;;17.15;9.00;;;6.90;95.70;;;;;;10439791;28;20055;-62
2022/11/21 06:42:38;;;;;;;17.40;8.35;;;6.00;95.40;;;;;;10454237;28;20393;-63
2022/11/21 06:47:39;;;;;;;21.10;9.73;;;6.00;95.40;;;;;;10448729;28;20375;-63
2022/11/21 06:52:40;;;;;;;18.35;8.88;;;6.00;95.40;;;;;;10434380;28;20037;-63
2022/11/21 06:57:41;;;;;;;17.35;9.32;;;6.20;95.40;;;;;;10448428;28;20021;-63
2022/11/21 07:02:41;;;;;;;16.70;8.68;;;5.90;95.40;;;;;;10438251;28;20056;-63
2022/11/21 07:07:42;;;;;;;15.82;8.43;;;6.00;95.40;;;;;;10443155;28;20028;-63
2022/11/21 07:18:02;;;;;;;17.73;8.88;;;5.90;95.40;;;;;;10437959;28;20052;-63
2022/11/21 07:23:03;;;;;;;17.48;8.55;;;5.90;95.30;;;;;;10442846;28;20049;-63
2022/11/21 07:28:06;;;;;;;14.65;7.80;;;5.90;95.30;;;;;;10338185;28;20031;-63
2022/11/21 07:33:08;;;;;;;19.95;9.13;;;6.00;95.40;;;;;;10341538;28;20033;-64
2022/11/21 07:38:09;;;;;;;17.48;9.57;;;5.90;95.30;;;;;;10337753;28;20019;-62
2022/11/21 07:43:10;;;;;;;16.67;8.77;;;5.90;95.30;;;;;;10351321;28;20038;-63
2022/11/21 07:48:11;;;;;;;19.42;8.68;;;5.90;95.30;;;;;;10353650;28;20437;-63
2022/11/21 07:53:13;;;;;;;18.17;8.60;;;5.90;95.30;;;;;;10344833;28;20029;-63
2022/11/21 07:58:15;;;;;;;18.25;8.00;;;6.90;95.60;;;;;;10344573;28;20120;-62
2022/11/21 08:03:15;;;;;;;16.33;7.32;;;5.90;95.30;;;;;;10354436;28;20044;-63
2022/11/21 08:08:16;;;;;;;20.17;8.88;;;5.90;95.30;;;;;;10291430;28;20926;-63
2022/11/21 08:13:17;;;;;;;18.90;8.38;;;5.90;95.30;;;;;;10286197;28;20398;-62
2022/11/21 08:18:18;;;;;;;16.98;7.88;;;5.90;95.30;;;;;;10286633;28;20475;-62
2022/11/21 08:23:19;;;;;;;14.80;7.72;;;5.90;95.30;;;;;;10279991;28;20204;-62
2022/11/21 08:28:19;;;;;;;14.73;7.22;;;6.60;95.50;;;;;;10340129;28;20390;-64
2022/11/21 08:33:20;;;;;;;14.20;7.38;;;5.90;95.30;;;;;;10353942;28;20033;-63
2022/11/21 08:38:21;;;;;;;14.35;6.80;;;5.90;95.30;;;;;;10367466;28;20438;-63
2022/11/21 08:43:22;;;;;;;13.05;6.72;;;5.90;95.30;;;;;;10361320;28;20569;-62
2022/11/21 08:48:23;;;;;;;14.70;7.00;;;5.90;95.30;;;;;;10368313;28;20553;-64
2022/11/21 08:53:23;;;;;;;13.48;6.28;;;5.90;95.30;;;;;;10360429;28;20152;-62
2022/11/21 08:58:24;;;;;;;12.00;6.50;;;5.90;95.30;;;;;;10333289;28;20552;-62
2022/11/21 09:03:25;;;;;;;12.05;6.20;;;6.40;95.40;;;;;;10347730;28;20525;-62
2022/11/21 09:08:25;;;;;;;14.63;6.88;;;7.20;95.60;;;;;;10341022;28;20053;-62
2022/11/21 09:13:26;;;;;;;12.30;6.35;;;6.30;95.40;;;;;;10340749;28;20044;-62
2022/11/21 09:18:27;;;;;;;10.35;5.80;;;6.00;95.30;;;;;;10351762;28;20017;-61
2022/11/21 09:23:27;;;;;;;10.93;5.57;;;6.10;95.30;;;;;;10361605;28;20588;-62
2022/11/21 09:28:28;;;;;;;12.50;6.10;;;6.30;95.40;;;;;;10349560;28;20116;-62
2022/11/21 09:33:34;;;;;;;13.23;6.22;;;6.10;95.30;;;;;;10347393;28;20531;-63
2022/11/21 09:38:35;;;;;;;11.23;6.05;;;6.00;95.30;;;;;;10359459;28;20535;-64
2022/11/21 09:43:49;;;;;;;12.75;6.25;;;6.00;95.30;;;;;;10348186;28;20426;-64
2022/11/21 09:49:06;;;;;;;11.05;5.50;;;6.00;95.20;;;;;;10367128;28;20400;-64
2022/11/21 09:54:22;;;;;;;11.90;5.30;;;6.00;95.20;;;;;;10358842;28;20036;-64
2022/11/21 09:59:25;;;;;;;10.55;5.38;;;6.20;95.60;;;;;;10354901;28;20449;-68
2022/11/21 10:04:26;;;;;;;10.88;5.25;;;6.20;95.50;;;;;;10351142;28;20537;-64
2022/11/21 10:09:59;;;;;;;11.65;5.43;;;6.70;95.60;;;;;;10360073;28;20025;-64
2022/11/21 10:15:19;;;;;;;9.90;4.57;;;6.20;95.40;;;;;;10367890;28;20033;-63
2022/11/21 10:20:28;;;;;;;8.95;4.78;;;6.30;95.80;;;;;;10368598;28;20078;-63
2022/11/21 10:25:36;;;;;;;9.25;4.97;;;6.30;95.50;;;;;;10379786;28;20064;-63
2022/11/21 10:30:42;;;;;;;9.10;4.97;;;6.20;95.50;;;;;;10376819;28;20025;-65
2022/11/21 10:35:50;;;;;;;10.18;5.00;;;6.20;95.50;;;;;;10366512;28;20465;-63
2022/11/21 10:41:01;;;;;;;8.50;4.97;;;6.20;95.50;;;;;;10376611;28;20311;-62
2022/11/21 10:46:02;;;;;;;9.43;4.82;;;6.30;95.70;;;;;;10376235;28;20541;-64
2022/11/21 10:51:12;;;;;;;9.73;4.90;;;6.30;95.50;;;;;;10352099;28;20131;-64
2022/11/21 10:56:19;;;;;;;10.00;5.25;;;6.30;95.70;;;;;;10370183;28;20032;-62
2022/11/21 11:01:23;;;;;;;11.75;5.57;;;6.40;95.80;;;;;;10368493;28;20029;-66
2022/11/21 11:06:28;;;;;;;9.00;4.60;;;6.40;95.70;;;;;;10369144;28;20044;-63
2022/11/21 11:11:29;;;;;;;8.27;4.88;;;6.40;95.70;;;;;;10369454;28;20652;-66
2022/11/21 11:16:33;;;;;;;11.90;5.32;;;6.50;95.80;;;;;;10376219;28;20029;-63
2022/11/21 11:21:43;;;;;;;8.90;5.25;;;6.40;95.80;;;;;;10372633;28;20456;-63
2022/11/21 11:26:47;;;;;;;10.38;5.75;;;6.30;95.80;;;;;;10360796;28;20060;-62
2022/11/21 11:32:00;;;;;;;11.85;5.22;;;6.30;95.80;;;;;;10377862;28;20029;-63
2022/11/21 11:37:24;;;;;;;8.73;4.65;;;6.30;95.70;;;;;;10367028;28;20485;-63
2022/11/21 11:48:09;;;;;;;12.05;5.53;;;6.30;95.80;;;;;;10364970;28;20688;-62
2022/11/21 11:53:21;;;;;;;11.20;5.30;;;6.30;95.80;;;;;;10340255;28;20029;-66
2022/11/21 11:58:42;;;;;;;10.82;5.43;;;6.30;95.80;;;;;;10362273;28;20255;-63
2022/11/21 12:03:57;;;;;;;10.55;5.53;;;6.30;95.70;;;;;;10358527;28;20080;-62
2022/11/21 12:09:10;;;;;;;10.80;5.30;;;6.30;95.70;;;;;;10348317;28;20428;-62
2022/11/21 12:15:47;;;;;;;10.75;5.63;;;6.40;95.70;;;;;;10363952;28;20572;-63
2022/11/21 12:19:40;;;;;;;10.88;5.07;;;6.40;95.70;;;;;;10368505;28;20095;-62
2022/11/21 12:24:43;;;;;;;12.27;6.10;;;6.40;95.70;;;;;;10369893;28;20068;-63
2022/11/21 12:30:03;;;;;;;11.07;5.68;;;6.30;95.80;;;;;;10364887;28;20145;-62
2022/11/21 12:35:29;;;;;;;16.98;5.68;;;6.40;95.90;;;;;;10368489;28;20037;-62
2022/11/21 12:57:43;;;;;;;15.23;5.83;;;6.40;96.00;;;;;;10408140;28;20854;-64
2022/11/21 13:03:21;;;;;;;13.35;6.35;;;6.40;96.00;;;;;;10406330;28;20036;-66
2022/11/21 13:08:26;;;;;;;14.00;6.30;;;6.90;96.30;;;;;;10404337;28;20031;-64
2022/11/21 13:13:32;;;;;;;14.73;6.28;;;6.40;96.10;;;;;;10411729;28;20271;-61
2022/11/21 13:18:39;;;;;;;14.20;6.00;;;6.40;96.30;;;;;;10406091;28;20147;-64
2022/11/21 13:23:41;;;;;;;17.90;6.95;;;6.50;96.30;;;;;;10405337;28;20063;-63
2022/11/21 13:28:45;;;;;;;11.45;6.00;;;6.50;96.30;;;;;;10398840;28;20029;-62
2022/11/21 13:33:48;;;;;;;16.13;6.25;;;6.50;96.30;;;;;;10410033;28;20040;-61
2022/11/21 13:38:54;;;;;;;15.55;6.97;;;6.50;96.40;;;;;;10409689;28;20114;-62
2022/11/21 13:44:29;;;;;;;14.40;6.43;;;6.70;96.40;;;;;;10390618;28;20036;-62
2022/11/21 13:50:07;;;;;;;12.35;6.28;;;6.50;96.50;;;;;;10411674;28;20568;-64
2022/11/21 13:55:34;;;;;;;17.48;6.53;;;6.50;96.60;;;;;;10412360;28;20070;-61
2022/11/21 14:00:53;;;;;;;16.92;6.57;;;6.50;96.50;;;;;;10417030;28;20035;-63
2022/11/21 14:06:32;;;;;;;18.52;6.90;;;6.50;96.60;;;;;;10420850;28;20479;-67
2022/11/21 14:11:47;;;;;;;15.02;6.55;;;6.50;96.90;;;;;;10404778;28;20453;-62
2022/11/21 14:17:22;;;;;;;18.92;7.65;;;6.60;96.80;;;;;;10410562;28;20450;-63
2022/11/21 14:22:29;;;;;;;17.75;7.35;;;6.50;96.90;;;;;;10419359;28;20032;-62
2022/11/21 14:27:36;;;;;;;14.45;6.75;;;6.50;96.80;;;;;;10435451;28;20028;-63
2022/11/21 14:32:37;;;;;;;14.25;6.68;;;6.50;96.90;;;;;;10411913;28;20065;-63
2022/11/21 14:37:41;;;;;;;18.95;7.30;;;6.50;96.90;;;;;;10415966;28;20668;-64
2022/11/21 14:42:51;;;;;;;18.05;7.28;;;6.50;96.90;;;;;;10415581;28;20044;-62
2022/11/21 14:47:52;;;;;;;19.75;7.75;;;6.50;97.00;;;;;;10410692;28;20058;-62
2022/11/21 14:53:00;;;;;;;17.45;6.75;;;7.20;97.40;;;;;;10408194;28;20489;-62
2022/11/21 14:58:04;;;;;;;17.88;7.30;;;6.40;97.30;;;;;;10407088;28;20491;-63
2022/11/21 15:03:22;;;;;;;19.35;6.95;;;6.50;97.50;;;;;;10401319;28;20568;-61
2022/11/21 15:08:23;;;;;;;15.52;7.18;;;6.50;97.30;;;;;;10402286;28;20025;-62
2022/11/21 15:13:33;;;;;;;18.25;7.25;;;6.50;97.20;;;;;;10410255;28;20464;-61
2022/11/21 15:18:34;;;;;;;21.05;8.20;;;6.50;97.30;;;;;;10408446;28;20025;-62
2022/11/21 15:23:39;;;;;;;18.17;7.43;;;6.50;97.30;;;;;;10421044;28;20095;-61
2022/11/21 15:29:00;;;;;;;15.52;6.70;;;6.50;97.20;;;;;;10425981;22;20032;-61
2022/11/21 15:34:54;;;;;;;19.35;7.68;;;6.50;97.50;;;;;;10371343;28;20520;-61
2022/11/21 15:40:23;;;;;;;18.02;7.32;;;6.50;97.60;;;;;;10367299;28;20493;-61
2022/11/21 15:45:41;;;;;;;25.00;7.15;;;6.50;97.50;;;;;;10389851;22;20048;-61
2022/11/21 15:50:42;;;;;;;19.23;6.97;;;6.60;97.60;;;;;;10377891;23;20284;-61
2022/11/21 15:55:43;;;;;;;15.85;7.18;;;6.60;97.50;;;;;;10399310;28;20433;-61
2022/11/21 16:00:44;;;;;;;19.70;8.27;;;7.10;97.50;;;;;;10392044;28;20147;-62
2022/11/21 16:05:44;;;;;;;22.67;8.55;;;6.80;97.80;;;;;;10432969;28;20068;-62
2022/11/21 16:10:45;;;;;;;22.88;8.40;;;6.90;97.60;;;;;;10477487;28;20025;-61
2022/11/21 16:15:46;;;;;;;22.60;8.13;;;6.60;97.50;;;;;;10467350;28;20052;-61
2022/11/21 16:20:47;;;;;;;23.52;8.63;;;6.60;97.60;;;;;;10477888;28;20424;-61
2022/11/21 16:25:52;;;;;;;22.88;8.88;;;6.60;97.70;;;;;;10479774;28;20041;-61
2022/11/21 16:30:53;;;;;;;23.98;8.95;;;7.80;98.00;;;;;;10480487;28;20032;-62
2022/11/21 16:35:55;;;;;;;25.48;9.75;;;6.60;97.70;;;;;;10466551;28;20031;-62
2022/11/21 16:41:04;;;;;;;24.40;9.13;;;6.60;97.70;;;;;;10546885;27;21061;-62
2022/11/21 16:46:08;;;;;;;31.85;10.05;;;6.60;97.80;;;;;;10530314;28;20024;-61
2022/11/21 16:51:11;;;;;;;34.50;11.25;;;6.70;98.00;;;;;;10526317;28;20448;-61
2022/11/21 16:56:14;;;;;;;32.65;10.57;;;6.70;98.20;;;;;;10530567;28;20039;-63
2022/11/21 17:01:17;;;;;;;31.42;10.43;;;6.70;98.50;;;;;;10528488;28;20027;-64
2022/11/21 17:06:20;;;;;;;35.22;12.05;;;6.80;98.60;;;;;;10528256;28;20024;-64
2022/11/21 17:11:27;;;;;;;37.25;11.77;;;6.80;98.50;;;;;;10517299;28;20025;-64
2022/11/21 17:16:27;;;;;;;33.35;12.18;;;6.80;98.50;;;;;;10515638;28;20497;-66
2022/11/21 17:21:29;;;;;;;29.65;11.25;;;6.70;98.50;;;;;;10546847;28;20210;-64
2022/11/21 17:26:30;;;;;;;33.13;11.35;;;6.80;98.60;;;;;;10557672;28;20017;-66
2022/11/21 17:31:31;;;;;;;30.88;11.32;;;6.80;98.60;;;;;;10520153;28;20051;-64
2022/11/21 17:36:33;;;;;;;38.13;12.00;;;6.80;98.60;;;;;;10536473;28;20047;-64
2022/11/21 17:41:33;;;;;;;34.28;12.07;;;7.10;98.60;;;;;;10557014;28;20074;-64
2022/11/21 17:46:34;;;;;;;36.47;12.73;;;6.90;98.80;;;;;;10571787;28;20397;-64
2022/11/21 17:51:36;;;;;;;35.88;11.93;;;6.80;98.70;;;;;;10551111;27;20024;-63
2022/11/21 17:56:38;;;;;;;35.45;13.50;;;7.00;98.70;;;;;;10542736;28;20508;-64
2022/11/21 18:01:39;;;;;;;34.90;12.25;;;6.80;98.70;;;;;;10535972;28;20028;-63
2022/11/21 18:06:40;;;;;;;38.50;13.35;;;6.80;98.70;;;;;;10548478;28;20028;-64
2022/11/21 18:11:41;;;;;;;37.35;14.25;;;6.80;98.70;;;;;;10544542;28;20036;-66
2022/11/21 18:16:42;;;;;;;44.67;13.32;;;6.80;98.70;;;;;;10540795;28;20169;-63
2022/11/21 18:21:43;;;;;;;42.53;14.85;;;6.80;98.80;;;;;;10535113;27;20088;-65
2022/11/21 18:26:44;;;;;;;42.17;13.25;;;6.80;98.90;;;;;;10536475;27;20036;-64
2022/11/21 18:31:44;;;;;;;39.22;13.13;;;7.20;98.90;;;;;;10542777;28;20268;-63
2022/11/21 18:36:46;;;;;;;37.58;13.15;;;7.10;99.10;;;;;;10552123;28;20058;-65
2022/11/21 18:41:47;;;;;;;35.10;13.48;;;7.30;99.20;;;;;;10534676;28;20224;-64
2022/11/21 18:46:48;;;;;;;37.50;12.95;;;7.10;99.00;;;;;;10532739;27;20061;-63
2022/11/21 18:51:49;;;;;;;30.02;12.88;;;7.30;99.10;;;;;;10533366;27;20111;-64
2022/11/21 18:56:49;;;;;;;35.67;12.80;;;7.10;99.00;;;;;;10529265;28;20062;-65
2022/11/21 19:01:50;;;;;;;36.78;13.07;;;7.00;99.10;;;;;;10538062;28;20119;-65
2022/11/21 19:06:52;;;;;;;33.65;12.75;;;7.00;99.20;;;;;;10527768;28;20055;-64
2022/11/21 19:12:04;;;;;;;33.72;12.32;;;7.00;99.20;;;;;;10529801;22;20516;-68
2022/11/21 19:17:05;;;;;;;31.02;11.48;;;7.00;99.30;;;;;;10476289;28;20046;-65
2022/11/21 19:22:06;;;;;;;34.42;13.48;;;7.00;99.20;;;;;;10510025;28;20020;-65
2022/11/21 19:27:07;;;;;;;29.67;10.85;;;7.00;99.20;;;;;;10511973;28;20044;-64
2022/11/21 19:32:08;;;;;;;32.78;11.77;;;7.00;99.20;;;;;;10498078;28;20020;-64
2022/11/21 19:37:08;;;;;;;29.70;11.98;;;6.90;99.10;;;;;;10507478;28;20029;-64
2022/11/21 19:42:09;;;;;;;25.40;11.32;;;7.00;99.20;;;;;;10494847;28;20107;-65
2022/11/21 19:47:10;;;;;;;29.75;11.13;;;7.00;99.20;;;;;;10502034;28;20516;-65
2022/11/21 19:52:11;;;;;;;31.50;11.85;;;7.20;99.30;;;;;;10478300;28;20370;-64
2022/11/21 19:57:12;;;;;;;33.03;11.30;;;7.20;99.30;;;;;;10499812;28;20024;-64
2022/11/21 20:02:20;;;;;;;30.00;11.02;;;7.00;99.30;;;;;;10507609;28;20111;-64
2022/11/21 20:07:21;;;;;;;25.88;10.25;;;7.00;99.30;;;;;;10498680;28;20048;-65
2022/11/21 20:12:21;;;;;;;29.10;12.18;;;7.40;99.30;;;;;;10508723;28;20139;-64
2022/11/21 20:17:22;;;;;;;23.17;10.60;;;7.00;99.20;;;;;;10504063;28;20079;-64
2022/11/21 20:22:23;;;;;;;27.67;11.50;;;7.00;99.20;;;;;;10514301;28;20492;-64
2022/11/21 20:27:24;;;;;;;31.67;11.43;;;7.00;99.20;;;;;;10480664;28;20085;-66
2022/11/21 20:32:27;;;;;;;25.13;10.63;;;7.00;99.20;;;;;;10511117;28;20028;-64
2022/11/21 20:37:27;;;;;;;26.23;11.02;;;7.00;99.20;;;;;;10507209;28;20451;-64
2022/11/21 20:42:28;;;;;;;27.42;10.55;;;7.00;99.20;;;;;;10490729;28;20027;-64
2022/11/21 20:47:29;;;;;;;24.77;10.35;;;7.00;99.20;;;;;;10511446;28;20016;-64
2022/11/21 20:52:30;;;;;;;27.25;9.90;;;6.90;99.20;;;;;;10507310;28;20147;-64
2022/11/21 20:57:31;;;;;;;23.02;10.95;;;7.10;99.20;;;;;;10516304;28;20028;-64
2022/11/21 21:02:32;;;;;;;24.10;10.20;;;7.00;99.20;;;;;;10510462;28;20025;-65
2022/11/21 21:07:32;;;;;;;23.55;10.25;;;7.00;99.20;;;;;;10514081;28;20035;-64
2022/11/21 21:12:48;;;;;;;23.73;10.50;;;7.00;99.20;;;;;;10506309;28;20048;-64
2022/11/21 21:17:49;;;;;;;21.50;9.00;;;6.90;99.20;;;;;;10503838;28;20527;-65
2022/11/21 21:22:49;;;;;;;21.85;9.25;;;7.00;99.20;;;;;;10514342;28;20038;-64
2022/11/21 21:27:50;;;;;;;19.30;8.68;;;7.00;99.20;;;;;;10516070;28;20123;-64
2022/11/21 21:32:51;;;;;;;21.13;9.60;;;7.00;99.20;;;;;;10515359;28;20017;-65
2022/11/21 21:37:51;;;;;;;20.73;9.20;;;7.30;99.30;;;;;;10491856;28;20047;-64
2022/11/21 21:42:52;;;;;;;21.08;9.20;;;7.00;99.20;;;;;;10509507;28;20032;-64
2022/11/21 21:47:53;;;;;;;19.38;8.70;;;7.00;99.20;;;;;;10515946;28;20043;-64
2022/11/21 21:52:54;;;;;;;18.60;7.95;;;7.00;99.20;;;;;;10516515;28;20115;-64
2022/11/21 21:57:55;;;;;;;19.10;8.25;;;7.10;99.20;;;;;;10510547;28;20035;-64
2022/11/21 22:02:56;;;;;;;21.60;9.15;;;7.10;99.10;;;;;;10516636;28;20548;-64
2022/11/21 22:07:58;;;;;;;17.67;8.23;;;7.10;99.10;;;;;;10525626;28;20047;-64
2022/11/21 22:12:58;;;;;;;17.98;7.88;;;7.10;99.10;;;;;;10517973;28;20403;-65
2022/11/21 22:17:59;;;;;;;19.05;7.80;;;7.00;99.10;;;;;;10519355;28;20028;-64
2022/11/21 22:23:00;;;;;;;22.27;9.10;;;7.00;99.10;;;;;;10522678;28;20423;-65
2022/11/21 22:28:00;;;;;;;20.40;8.50;;;7.10;99.10;;;;;;10516127;28;20025;-65
2022/11/21 22:33:01;;;;;;;19.38;8.27;;;7.00;99.10;;;;;;10500650;28;20262;-65
2022/11/21 22:38:02;;;;;;;18.42;8.15;;;7.10;99.30;;;;;;10510216;28;20051;-66
2022/11/21 22:43:03;;;;;;;17.83;7.78;;;7.10;99.10;;;;;;10501153;28;20028;-65
2022/11/21 22:48:04;;;;;;;18.77;7.90;;;7.00;99.00;;;;;;10510461;28;20123;-65
2022/11/21 22:53:05;;;;;;;18.40;8.05;;;7.10;99.00;;;;;;10520285;28;20578;-65
2022/11/21 22:58:06;;;;;;;17.75;8.20;;;7.20;99.00;;;;;;10521832;28;20074;-65
2022/11/21 23:03:06;;;;;;;16.98;8.20;;;7.10;99.00;;;;;;10508777;28;20503;-65
2022/11/21 23:08:07;;;;;;;15.95;7.75;;;7.10;99.00;;;;;;10525055;28;20543;-66
2022/11/21 23:13:08;;;;;;;19.35;7.68;;;6.50;98.90;;;;;;10524052;28;20118;-64
2022/11/21 23:18:09;;;;;;;17.33;7.35;;;7.10;99.00;;;;;;10519216;28;20135;-64
2022/11/21 23:23:09;;;;;;;14.93;6.97;;;7.10;99.00;;;;;;10523902;28;20028;-64
2022/11/21 23:28:10;;;;;;;14.98;6.53;;;7.10;99.00;;;;;;10526966;28;20111;-64
2022/11/21 23:33:11;;;;;;;15.43;7.43;;;7.30;99.00;;;;;;10527879;28;20491;-64
2022/11/21 23:38:13;;;;;;;14.48;7.13;;;7.10;98.90;;;;;;10527129;28;20451;-67
2022/11/21 23:43:15;;;;;;;14.50;7.03;;;7.10;98.90;;;;;;10526950;28;20511;-64
2022/11/21 23:48:17;;;;;;;13.02;6.65;;;8.00;99.20;;;;;;10526591;28;20036;-64
2022/11/21 23:53:19;;;;;;;17.33;7.15;;;7.60;99.10;;;;;;10526849;28;20056;-64
2022/11/21 23:58:20;;;;;;;11.07;5.93;;;7.10;98.90;;;;;;10526645;28;20047;-64
